Time;durP1;ratioP1;P1;durP2;ratioP2;P2;SDS_P1;SDS_P2;PMS_P1;PMS_P2;Temp;Humidity;BMP_temperature;BMP_pressure;BME280_temperature;BME280_humidity;BME280_pressure;Samples;Min_cycle;Max_cycle;Signal;HPM_P1;HPM_P2
2023/07/14 00:00:18;;;;;;;0.95;0.40;;;20.80;1.00;;;;;;5071488;28;20423;-56
2023/07/14 00:02:47;;;;;;;1.23;0.50;;;20.70;1.00;;;;;;5075704;28;20741;-55
2023/07/14 00:05:21;;;;;;;0.73;0.50;;;20.70;1.00;;;;;;5075494;28;20940;-55
2023/07/14 00:07:50;;;;;;;0.70;0.40;;;20.60;1.00;;;;;;5074807;28;20446;-56
2023/07/14 00:10:20;;;;;;;0.70;0.40;;;20.60;1.00;;;;;;5074511;28;20435;-57
2023/07/14 00:12:49;;;;;;;0.80;0.50;;;20.50;1.00;;;;;;5075198;28;20488;-54
2023/07/14 00:15:17;;;;;;;0.90;0.40;;;20.40;1.00;;;;;;5077316;28;20730;-55
2023/07/14 00:17:45;;;;;;;0.70;0.50;;;20.30;1.00;;;;;;5076872;28;20522;-56
2023/07/14 00:20:26;;;;;;;1.10;0.50;;;20.30;1.00;;;;;;5078153;28;20431;-56
2023/07/14 00:22:53;;;;;;;1.50;0.50;;;20.40;1.00;;;;;;5077449;28;20510;-55
2023/07/14 00:25:22;;;;;;;2.80;0.60;;;20.30;1.00;;;;;;5077318;28;20427;-57
2023/07/14 00:27:50;;;;;;;1.10;0.50;;;20.30;1.00;;;;;;5077099;28;20431;-55
2023/07/14 00:30:20;;;;;;;0.97;0.50;;;20.30;1.00;;;;;;5077237;28;20500;-56
2023/07/14 00:32:48;;;;;;;1.30;0.50;;;20.10;1.00;;;;;;5077268;28;20830;-56
2023/07/14 00:35:26;;;;;;;1.50;0.60;;;20.00;1.00;;;;;;5077388;28;20814;-53
2023/07/14 00:37:55;;;;;;;1.20;0.50;;;19.90;1.00;;;;;;5077079;28;20849;-57
2023/07/14 00:40:25;;;;;;;0.93;0.50;;;20.00;1.00;;;;;;5076919;28;20793;-53
2023/07/14 00:42:55;;;;;;;0.98;0.40;;;20.00;1.00;;;;;;5075295;28;20518;-57
2023/07/14 00:45:25;;;;;;;0.77;0.50;;;19.90;1.00;;;;;;5075090;28;20552;-56
2023/07/14 00:47:55;;;;;;;1.38;0.50;;;19.80;1.00;;;;;;5075519;28;20449;-58
2023/07/14 00:50:32;;;;;;;0.90;0.50;;;19.80;1.00;;;;;;5075956;28;20928;-57
2023/07/14 00:53:04;;;;;;;0.70;0.40;;;19.70;1.00;;;;;;5076888;28;20431;-57
2023/07/14 00:55:42;;;;;;;0.70;0.40;;;19.70;1.00;;;;;;5076599;28;20834;-57
2023/07/14 00:58:18;;;;;;;1.27;0.50;;;19.80;1.00;;;;;;5075966;28;20893;-58
2023/07/14 01:01:10;;;;;;;1.10;0.50;;;19.90;1.00;;;;;;5076646;28;20431;-53
2023/07/14 01:03:40;;;;;;;0.63;0.40;;;20.00;1.00;;;;;;5077074;28;20428;-54
2023/07/14 01:06:13;;;;;;;1.27;0.50;;;20.10;1.00;;;;;;5077259;28;20520;-55
2023/07/14 01:08:48;;;;;;;0.75;0.50;;;20.10;1.00;;;;;;5075118;28;20450;-57
2023/07/14 01:11:16;;;;;;;1.10;0.50;;;20.00;1.00;;;;;;5075300;28;20474;-56
2023/07/14 01:13:44;;;;;;;0.70;0.50;;;19.90;1.00;;;;;;5074963;28;20788;-55
2023/07/14 01:16:14;;;;;;;1.70;0.60;;;19.90;1.00;;;;;;5076343;28;20435;-59
2023/07/14 01:18:42;;;;;;;1.00;0.50;;;20.00;1.00;;;;;;5076145;28;20542;-56
2023/07/14 01:21:11;;;;;;;1.90;0.50;;;20.00;1.00;;;;;;5075086;28;20842;-55
2023/07/14 01:24:06;;;;;;;0.88;0.55;;;20.00;1.00;;;;;;5075459;28;20427;-56
2023/07/14 01:26:51;;;;;;;1.08;0.50;;;20.00;1.00;;;;;;5068947;28;20435;-57
2023/07/14 01:29:19;;;;;;;0.90;0.50;;;20.00;1.00;;;;;;5076840;28;20507;-58
2023/07/14 01:31:47;;;;;;;1.80;0.50;;;20.00;1.00;;;;;;5076095;28;20434;-56
2023/07/14 01:34:14;;;;;;;1.20;0.60;;;19.90;1.00;;;;;;5076579;28;20700;-57
2023/07/14 01:36:43;;;;;;;1.20;0.40;;;19.90;1.00;;;;;;5076160;28;20522;-56
2023/07/14 01:39:10;;;;;;;0.70;0.40;;;19.70;1.00;;;;;;5076340;28;21050;-55
2023/07/14 01:41:37;;;;;;;1.80;0.50;;;19.70;1.00;;;;;;5075583;28;20528;-54
2023/07/14 01:44:07;;;;;;;0.60;0.40;;;19.70;1.00;;;;;;5076090;28;20423;-56
2023/07/14 01:46:34;;;;;;;2.00;0.40;;;19.60;1.00;;;;;;5075231;28;20427;-56
2023/07/14 01:49:13;;;;;;;1.50;0.50;;;19.50;1.00;;;;;;5075859;28;20541;-56
2023/07/14 01:51:43;;;;;;;0.67;0.40;;;19.50;1.00;;;;;;5075492;28;20438;-54
2023/07/14 01:54:26;;;;;;;1.10;0.50;;;19.50;1.00;;;;;;5075246;28;20762;-57
2023/07/14 01:56:56;;;;;;;0.80;0.40;;;19.40;1.00;;;;;;5076062;28;20597;-54
2023/07/14 01:59:28;;;;;;;0.90;0.50;;;19.50;1.00;;;;;;5076238;28;20500;-59
2023/07/14 02:01:59;;;;;;;0.93;0.40;;;19.50;1.00;;;;;;5075515;28;20438;-56
2023/07/14 02:04:29;;;;;;;0.70;0.50;;;19.40;1.00;;;;;;5076016;28;20797;-58
2023/07/14 02:06:57;;;;;;;0.80;0.50;;;19.40;1.00;;;;;;5075447;28;20553;-54
2023/07/14 02:09:28;;;;;;;0.90;0.40;;;19.40;1.00;;;;;;5075426;28;20493;-55
2023/07/14 02:11:58;;;;;;;1.93;0.50;;;19.40;1.00;;;;;;5075399;28;20485;-55
2023/07/14 02:14:33;;;;;;;0.80;0.50;;;19.40;1.00;;;;;;5075341;28;20432;-55
2023/07/14 02:17:05;;;;;;;1.40;0.60;;;19.40;1.00;;;;;;5075744;28;20431;-57
2023/07/14 02:19:33;;;;;;;0.70;0.40;;;19.50;1.00;;;;;;5076021;28;20497;-57
2023/07/14 02:22:02;;;;;;;1.42;0.40;;;19.50;1.00;;;;;;5075486;28;20427;-55
2023/07/14 02:24:30;;;;;;;0.75;0.40;;;19.50;1.00;;;;;;5075369;28;20830;-55
2023/07/14 02:27:01;;;;;;;0.80;0.40;;;19.50;1.00;;;;;;5074601;28;20547;-56
2023/07/14 02:29:30;;;;;;;1.60;0.50;;;19.50;1.00;;;;;;5075041;28;20439;-57
2023/07/14 02:32:01;;;;;;;0.90;0.40;;;19.40;1.00;;;;;;5074709;28;20580;-57
2023/07/14 02:34:34;;;;;;;1.52;0.55;;;19.40;1.00;;;;;;5073890;28;20498;-54
2023/07/14 02:37:03;;;;;;;0.70;0.40;;;19.30;17.20;;;;;;5073462;28;20435;-52
2023/07/14 02:39:35;;;;;;;0.60;0.50;;;19.30;90.30;;;;;;5074099;28;20415;-56
2023/07/14 02:42:02;;;;;;;0.90;0.50;;;19.40;99.90;;;;;;5074446;28;20510;-56
2023/07/14 02:44:33;;;;;;;1.20;0.40;;;19.50;99.90;;;;;;5075196;28;20431;-55
2023/07/14 02:47:05;;;;;;;0.70;0.50;;;19.40;99.20;;;;;;5075124;28;20439;-55
2023/07/14 02:49:32;;;;;;;1.13;0.40;;;19.30;98.50;;;;;;5075617;28;20443;-53
2023/07/14 02:51:59;;;;;;;2.50;0.50;;;19.10;99.90;;;;;;5075653;28;20500;-54
2023/07/14 02:54:26;;;;;;;1.00;0.40;;;18.90;99.90;;;;;;5074894;28;20420;-57
2023/07/14 02:56:53;;;;;;;0.90;0.50;;;19.00;99.90;;;;;;5074139;28;20411;-55
2023/07/14 02:59:21;;;;;;;1.33;0.50;;;19.00;99.90;;;;;;5074347;28;20423;-53
2023/07/14 03:01:49;;;;;;;1.02;0.40;;;19.00;99.90;;;;;;5074773;28;20865;-53
2023/07/14 03:04:16;;;;;;;1.10;0.50;;;19.10;99.90;;;;;;5075085;28;20419;-55
2023/07/14 03:06:43;;;;;;;0.80;0.50;;;19.00;99.90;;;;;;5075105;28;20432;-51
2023/07/14 03:09:10;;;;;;;0.90;0.50;;;19.00;99.90;;;;;;5074054;28;20834;-57
2023/07/14 03:11:37;;;;;;;1.00;0.60;;;18.90;99.90;;;;;;5074959;28;20526;-55
2023/07/14 03:14:05;;;;;;;1.40;0.50;;;18.90;99.90;;;;;;5073748;28;20481;-55
2023/07/14 03:16:32;;;;;;;0.90;0.50;;;19.00;99.90;;;;;;5073014;28;20423;-56
2023/07/14 03:19:01;;;;;;;1.40;0.50;;;19.00;99.90;;;;;;5074500;28;20431;-56
2023/07/14 03:21:28;;;;;;;0.60;0.50;;;19.00;99.90;;;;;;5073223;28;20469;-55
2023/07/14 03:23:55;;;;;;;0.80;0.50;;;19.00;99.90;;;;;;5072271;28;20424;-56
2023/07/14 03:26:22;;;;;;;0.90;0.50;;;19.00;99.90;;;;;;5072803;28;20419;-56
2023/07/14 03:28:49;;;;;;;1.20;0.50;;;19.00;99.90;;;;;;5072826;28;20564;-55
2023/07/14 03:31:16;;;;;;;0.73;0.55;;;18.90;79.90;;;;;;5073442;28;20428;-54
2023/07/14 03:33:43;;;;;;;1.70;0.52;;;18.80;75.10;;;;;;5072268;28;20435;-57
2023/07/14 03:36:13;;;;;;;0.90;0.50;;;18.80;84.70;;;;;;5073411;28;20812;-55
2023/07/14 03:38:42;;;;;;;0.60;0.50;;;18.80;95.60;;;;;;5074349;28;20500;-55
2023/07/14 03:41:09;;;;;;;1.10;0.50;;;18.90;95.40;;;;;;5073888;28;20483;-54
2023/07/14 03:43:37;;;;;;;0.80;0.50;;;18.90;76.10;;;;;;5073452;28;20427;-55
2023/07/14 03:46:04;;;;;;;1.10;0.60;;;18.80;84.00;;;;;;5073052;28;20431;-55
2023/07/14 03:48:31;;;;;;;1.97;0.60;;;18.70;94.50;;;;;;5073865;28;20423;-55
2023/07/14 03:51:01;;;;;;;2.30;0.50;;;18.60;99.90;;;;;;5074362;28;20777;-50
2023/07/14 03:53:30;;;;;;;0.90;0.50;;;18.50;99.90;;;;;;5073647;28;20518;-54
2023/07/14 03:55:57;;;;;;;1.30;0.60;;;18.40;99.90;;;;;;5072431;28;20434;-53
2023/07/14 03:58:24;;;;;;;3.10;0.55;;;18.40;99.90;;;;;;5072339;28;20428;-54
2023/07/14 04:00:51;;;;;;;0.90;0.60;;;18.40;99.90;;;;;;5072442;28;20704;-54
2023/07/14 04:03:18;;;;;;;1.17;0.60;;;18.40;99.90;;;;;;5072786;28;20434;-58
2023/07/14 04:05:46;;;;;;;0.80;0.50;;;18.40;99.90;;;;;;5071963;28;21002;-54
2023/07/14 04:08:14;;;;;;;0.95;0.50;;;18.40;99.90;;;;;;5073243;28;20937;-55
2023/07/14 04:10:42;;;;;;;0.80;0.60;;;18.40;99.90;;;;;;5073427;28;20444;-57
2023/07/14 04:13:09;;;;;;;0.77;0.50;;;18.40;99.90;;;;;;5073120;28;20474;-56
2023/07/14 04:15:36;;;;;;;0.90;0.55;;;18.40;99.90;;;;;;5073852;28;20423;-56
2023/07/14 04:18:03;;;;;;;1.00;0.50;;;18.50;99.90;;;;;;5073289;28;20773;-55
2023/07/14 04:20:30;;;;;;;0.90;0.50;;;18.50;99.90;;;;;;5073210;28;20495;-54
2023/07/14 04:22:58;;;;;;;0.80;0.50;;;18.60;99.90;;;;;;5072851;28;20629;-51
2023/07/14 04:25:25;;;;;;;1.00;0.50;;;18.80;99.90;;;;;;5072591;28;20794;-55
2023/07/14 04:27:53;;;;;;;0.70;0.50;;;18.80;99.90;;;;;;5072239;28;20423;-49
2023/07/14 04:30:21;;;;;;;1.10;0.50;;;18.90;99.90;;;;;;5071078;28;20489;-51
2023/07/14 04:32:50;;;;;;;1.50;0.60;;;18.90;99.90;;;;;;5072000;28;20506;-55
2023/07/14 04:35:17;;;;;;;1.50;0.60;;;18.90;99.90;;;;;;5073580;28;20450;-55
2023/07/14 04:37:44;;;;;;;1.00;0.60;;;18.90;99.90;;;;;;5073415;28;20835;-56
2023/07/14 04:40:12;;;;;;;0.80;0.50;;;19.00;99.90;;;;;;5073202;28;20423;-49
2023/07/14 04:42:39;;;;;;;1.42;0.60;;;19.10;62.20;;;;;;5072828;28;20695;-51
2023/07/14 04:45:11;;;;;;;2.20;0.50;;;19.10;43.40;;;;;;5072408;28;20427;-53
2023/07/14 04:47:38;;;;;;;1.67;0.50;;;19.00;29.90;;;;;;5073176;28;20518;-54
2023/07/14 04:50:06;;;;;;;2.23;0.50;;;19.10;32.20;;;;;;5076026;28;20435;-55
2023/07/14 04:52:34;;;;;;;1.00;0.50;;;19.10;39.00;;;;;;5076246;28;20427;-54
2023/07/14 04:55:01;;;;;;;0.70;0.50;;;19.20;8.70;;;;;;5077213;28;20427;-57
2023/07/14 04:57:28;;;;;;;0.80;0.50;;;19.40;6.50;;;;;;5076778;28;20473;-54
2023/07/14 04:59:55;;;;;;;2.20;0.60;;;19.60;7.70;;;;;;5077132;28;20415;-55
2023/07/14 05:02:23;;;;;;;0.90;0.50;;;19.70;1.60;;;;;;5075986;28;20434;-53
2023/07/14 05:05:10;;;;;;;2.20;0.60;;;19.60;49.30;;;;;;5073787;28;20427;-55
2023/07/14 05:07:37;;;;;;;1.13;0.60;;;19.40;99.90;;;;;;5075637;28;20790;-55
2023/07/14 05:10:05;;;;;;;1.80;0.60;;;19.30;99.90;;;;;;5074907;28;20885;-54
2023/07/14 05:12:32;;;;;;;0.98;0.60;;;19.20;99.90;;;;;;5074727;28;20810;-56
2023/07/14 05:15:04;;;;;;;1.67;0.63;;;19.20;99.90;;;;;;5075248;28;20416;-55
2023/07/14 05:17:34;;;;;;;1.20;0.50;;;19.30;99.90;;;;;;5075641;28;20426;-54
2023/07/14 05:20:02;;;;;;;2.30;0.50;;;19.30;99.90;;;;;;5073936;28;21513;-56
2023/07/14 05:22:30;;;;;;;1.20;0.57;;;19.10;99.90;;;;;;5074064;28;20524;-55
2023/07/14 05:24:57;;;;;;;0.80;0.60;;;19.10;99.90;;;;;;5074477;28;20838;-54
2023/07/14 05:27:24;;;;;;;1.20;0.60;;;19.10;99.90;;;;;;5073631;28;20489;-54
2023/07/14 05:29:53;;;;;;;0.90;0.60;;;19.20;99.90;;;;;;5073197;28;20761;-57
2023/07/14 05:32:21;;;;;;;0.90;0.70;;;19.30;99.90;;;;;;5072547;28;20431;-55
2023/07/14 05:34:49;;;;;;;1.20;0.65;;;19.30;99.90;;;;;;5072816;28;20435;-50
2023/07/14 05:37:16;;;;;;;1.40;0.60;;;19.40;99.90;;;;;;5073673;28;20850;-55
2023/07/14 05:39:44;;;;;;;1.20;0.70;;;19.50;99.90;;;;;;5074644;28;20451;-54
2023/07/14 05:42:11;;;;;;;2.33;0.60;;;19.60;99.90;;;;;;5072876;28;20424;-54
2023/07/14 05:44:39;;;;;;;1.10;0.70;;;19.50;99.90;;;;;;5074837;28;20431;-57
2023/07/14 05:47:06;;;;;;;1.10;0.60;;;19.60;99.90;;;;;;5076084;28;20496;-55
2023/07/14 05:49:33;;;;;;;2.00;0.60;;;19.70;99.90;;;;;;5075477;28;20748;-54
2023/07/14 05:52:02;;;;;;;0.98;0.60;;;19.90;91.90;;;;;;5074584;28;20454;-56
2023/07/14 05:54:29;;;;;;;1.00;0.60;;;20.10;48.90;;;;;;5074927;28;20427;-54
2023/07/14 05:56:57;;;;;;;1.20;0.70;;;20.10;20.80;;;;;;5073301;28;20489;-55
2023/07/14 05:59:24;;;;;;;2.22;0.70;;;20.20;1.70;;;;;;5071635;28;20549;-53
2023/07/14 06:01:51;;;;;;;1.00;0.60;;;20.20;1.00;;;;;;5074184;28;20445;-56
2023/07/14 06:04:18;;;;;;;0.80;0.60;;;20.10;1.00;;;;;;5074144;28;20502;-53
2023/07/14 06:06:45;;;;;;;1.00;0.60;;;20.00;2.20;;;;;;5073487;28;21017;-56
2023/07/14 06:09:14;;;;;;;2.00;0.60;;;19.90;5.50;;;;;;5069940;28;20427;-56
2023/07/14 06:11:42;;;;;;;3.30;0.60;;;19.90;1.10;;;;;;5072718;28;20439;-55
2023/07/14 06:14:09;;;;;;;0.90;0.70;;;19.80;1.00;;;;;;5078341;28;20429;-56
2023/07/14 06:16:37;;;;;;;1.80;0.60;;;19.80;9.30;;;;;;5084328;28;20518;-53
2023/07/14 06:19:04;;;;;;;1.98;0.60;;;19.80;5.20;;;;;;5072857;28;20435;-55
2023/07/14 06:21:31;;;;;;;1.38;0.70;;;19.80;17.40;;;;;;5089104;28;20426;-55
2023/07/14 06:23:58;;;;;;;1.10;0.70;;;19.70;19.30;;;;;;5088534;28;20661;-56
2023/07/14 06:26:28;;;;;;;0.90;0.60;;;19.80;24.00;;;;;;5088634;28;20443;-57
2023/07/14 06:28:55;;;;;;;1.40;0.60;;;19.90;19.50;;;;;;5082450;28;20426;-56
2023/07/14 06:31:23;;;;;;;1.10;0.57;;;20.00;14.60;;;;;;5080073;28;20432;-56
2023/07/14 06:33:50;;;;;;;0.80;0.60;;;20.00;13.90;;;;;;5089568;28;20491;-56
2023/07/14 06:36:17;;;;;;;1.00;0.70;;;20.00;3.40;;;;;;5075493;28;20421;-57
2023/07/14 06:38:44;;;;;;;1.40;0.60;;;20.10;1.00;;;;;;5082105;28;20419;-57
2023/07/14 06:41:11;;;;;;;0.80;0.50;;;20.20;1.00;;;;;;5083317;28;20429;-57
2023/07/14 06:43:39;;;;;;;1.65;0.60;;;20.30;1.00;;;;;;5074702;28;20439;-56
2023/07/14 06:46:07;;;;;;;0.80;0.50;;;20.30;1.00;;;;;;5088557;28;20425;-57
2023/07/14 06:48:34;;;;;;;1.15;0.60;;;20.40;1.00;;;;;;5078126;28;20413;-56
2023/07/14 06:51:01;;;;;;;0.80;0.50;;;20.50;1.00;;;;;;5082037;28;20694;-58
2023/07/14 06:53:28;;;;;;;0.70;0.50;;;20.70;1.00;;;;;;5085703;28;20410;-54
2023/07/14 06:55:55;;;;;;;2.20;0.55;;;20.90;1.00;;;;;;5075244;28;20423;-57
2023/07/14 06:58:22;;;;;;;1.30;0.50;;;21.00;1.00;;;;;;5086655;28;20517;-56
2023/07/14 07:00:50;;;;;;;0.85;0.50;;;21.10;1.00;;;;;;5078341;28;20436;-56
2023/07/14 07:03:17;;;;;;;1.40;0.70;;;21.20;1.00;;;;;;5077318;28;20423;-57
2023/07/14 07:05:45;;;;;;;0.82;0.60;;;21.30;1.00;;;;;;5087807;28;20422;-57
2023/07/14 07:08:14;;;;;;;0.70;0.50;;;21.50;1.00;;;;;;5088553;28;20700;-56
2023/07/14 07:10:42;;;;;;;0.82;0.50;;;21.70;1.00;;;;;;5075338;28;20429;-55
2023/07/14 07:13:11;;;;;;;1.05;0.90;;;21.70;1.00;;;;;;5081607;28;20512;-57
2023/07/14 07:15:38;;;;;;;1.00;0.50;;;21.70;1.00;;;;;;5088877;28;20508;-56
2023/07/14 07:18:06;;;;;;;1.00;0.50;;;21.80;1.00;;;;;;5073262;28;20422;-57
2023/07/14 07:20:34;;;;;;;0.70;0.50;;;21.80;1.00;;;;;;5083464;28;20424;-57
2023/07/14 07:23:01;;;;;;;1.40;0.60;;;21.90;1.00;;;;;;5081441;28;20429;-58
2023/07/14 07:25:28;;;;;;;0.60;0.40;;;22.10;1.00;;;;;;5078975;28;20711;-57
2023/07/14 07:27:55;;;;;;;2.03;0.50;;;22.10;1.00;;;;;;5071052;28;20438;-56
2023/07/14 07:30:22;;;;;;;1.08;0.45;;;22.20;1.00;;;;;;5071558;28;20493;-57
2023/07/14 07:32:49;;;;;;;0.70;0.40;;;22.20;1.00;;;;;;5069200;28;20431;-57
2023/07/14 07:35:18;;;;;;;0.70;0.47;;;22.30;1.00;;;;;;5068348;28;20439;-57
2023/07/14 07:37:45;;;;;;;0.90;0.40;;;22.30;1.00;;;;;;5068244;28;20816;-56
2023/07/14 07:40:13;;;;;;;0.80;0.50;;;22.50;1.00;;;;;;5071004;28;20434;-55
2023/07/14 07:42:40;;;;;;;0.80;0.40;;;22.60;1.00;;;;;;5070153;28;20438;-57
2023/07/14 07:45:09;;;;;;;0.70;0.45;;;22.70;1.00;;;;;;5072730;28;20803;-60
2023/07/14 07:47:36;;;;;;;0.77;0.40;;;22.90;1.00;;;;;;5071431;28;20829;-59
2023/07/14 07:50:04;;;;;;;1.52;0.40;;;23.10;1.00;;;;;;5073581;28;20890;-59
2023/07/14 07:52:33;;;;;;;0.60;0.32;;;23.00;1.00;;;;;;5071285;28;20427;-58
2023/07/14 07:55:00;;;;;;;1.80;1.63;;;23.00;1.00;;;;;;5070739;28;20496;-58
2023/07/14 07:57:27;;;;;;;1.30;0.80;;;23.10;1.00;;;;;;5071025;28;20426;-57
2023/07/14 07:59:54;;;;;;;0.80;0.50;;;23.20;1.00;;;;;;5071405;28;20477;-55
2023/07/14 08:02:21;;;;;;;0.90;0.43;;;23.40;1.00;;;;;;5069790;28;20854;-54
2023/07/14 08:04:49;;;;;;;0.90;0.50;;;23.50;1.00;;;;;;5071485;28;20430;-54
2023/07/14 08:07:16;;;;;;;0.65;0.40;;;23.70;1.00;;;;;;5070212;28;20479;-55
2023/07/14 08:09:45;;;;;;;1.13;0.40;;;24.00;1.00;;;;;;5070160;28;20496;-55
2023/07/14 08:12:12;;;;;;;0.70;0.40;;;24.00;1.00;;;;;;5068192;28;20593;-57
2023/07/14 08:14:51;;;;;;;1.30;0.40;;;24.00;1.00;;;;;;5057143;28;20442;-58
2023/07/14 08:17:18;;;;;;;1.40;0.40;;;24.20;1.00;;;;;;5071313;28;20858;-57
2023/07/14 08:19:45;;;;;;;1.30;0.47;;;24.20;1.00;;;;;;5071239;28;20466;-56
2023/07/14 08:22:12;;;;;;;1.40;0.40;;;24.20;1.00;;;;;;5072304;28;20431;-57
2023/07/14 08:24:39;;;;;;;0.60;0.40;;;24.20;1.00;;;;;;5075172;28;20467;-56
2023/07/14 08:27:07;;;;;;;0.80;0.40;;;24.30;1.00;;;;;;5074338;28;20432;-56
2023/07/14 08:29:34;;;;;;;0.70;0.40;;;24.60;1.00;;;;;;5076018;28;20439;-58
2023/07/14 08:32:01;;;;;;;0.88;0.40;;;24.70;1.00;;;;;;5075648;28;20509;-59
2023/07/14 08:34:29;;;;;;;1.50;0.43;;;24.70;1.00;;;;;;5074433;28;20439;-57
2023/07/14 08:36:56;;;;;;;0.82;0.40;;;24.70;1.00;;;;;;5074770;28;20878;-58
2023/07/14 08:39:23;;;;;;;0.70;0.40;;;24.80;1.00;;;;;;5075341;28;20445;-58
2023/07/14 08:41:56;;;;;;;1.48;0.50;;;24.80;1.00;;;;;;5070316;28;21065;-57
2023/07/14 08:44:45;;;;;;;0.80;0.50;;;24.90;1.00;;;;;;5065607;28;20784;-54
2023/07/14 08:47:21;;;;;;;1.13;0.50;;;25.10;1.00;;;;;;5073700;28;20521;-57
2023/07/14 08:49:53;;;;;;;1.30;0.50;;;25.20;1.00;;;;;;5075037;28;20489;-57
2023/07/14 08:52:25;;;;;;;0.70;0.50;;;25.30;1.00;;;;;;5066659;28;20845;-55
2023/07/14 08:54:59;;;;;;;0.70;0.50;;;25.30;1.00;;;;;;5071497;28;20431;-56
2023/07/14 08:57:28;;;;;;;0.70;0.40;;;25.30;1.00;;;;;;5073805;28;20708;-55
2023/07/14 09:00:01;;;;;;;0.90;0.40;;;25.60;1.00;;;;;;5071881;28;20423;-58
2023/07/14 09:02:37;;;;;;;0.50;0.40;;;25.90;1.00;;;;;;5074532;28;20430;-55
2023/07/14 09:05:12;;;;;;;0.70;0.40;;;25.90;1.00;;;;;;5074481;28;20528;-56
2023/07/14 09:07:39;;;;;;;1.98;0.50;;;25.70;1.00;;;;;;5071393;28;20849;-55
2023/07/14 09:10:09;;;;;;;1.45;0.50;;;25.80;1.00;;;;;;5073645;28;20493;-58
2023/07/14 09:12:44;;;;;;;0.70;0.50;;;25.70;1.00;;;;;;5071937;28;20424;-57
2023/07/14 09:15:19;;;;;;;0.70;0.40;;;25.80;1.00;;;;;;5073978;28;20477;-56
2023/07/14 09:17:51;;;;;;;0.80;0.40;;;25.90;1.00;;;;;;5074835;28;20457;-57
2023/07/14 09:20:45;;;;;;;0.60;0.40;;;25.90;1.00;;;;;;5071364;28;20435;-57
2023/07/14 09:23:23;;;;;;;0.95;0.40;;;26.10;1.00;;;;;;5074284;28;20485;-57
2023/07/14 09:25:57;;;;;;;1.15;0.50;;;26.20;1.00;;;;;;5072614;28;20738;-57
2023/07/14 09:28:33;;;;;;;0.80;0.50;;;26.20;1.00;;;;;;5074803;28;20429;-57
2023/07/14 09:31:05;;;;;;;0.90;0.50;;;26.20;1.00;;;;;;5069376;28;20435;-54
2023/07/14 09:33:47;;;;;;;1.90;0.50;;;26.00;1.00;;;;;;5071502;28;20839;-56
2023/07/14 09:36:14;;;;;;;0.75;0.40;;;26.00;1.00;;;;;;5072742;28;20428;-56
2023/07/14 09:38:46;;;;;;;0.70;0.50;;;26.20;1.00;;;;;;5074368;28;20439;-57
2023/07/14 09:41:16;;;;;;;1.08;0.45;;;26.30;1.00;;;;;;5067259;28;20780;-58
2023/07/14 09:43:43;;;;;;;0.70;0.40;;;26.20;1.00;;;;;;5065260;28;20443;-57
2023/07/14 09:46:17;;;;;;;0.70;0.50;;;26.10;1.00;;;;;;5073674;28;20877;-56
2023/07/14 09:48:48;;;;;;;1.05;0.50;;;26.30;1.00;;;;;;5073253;28;20470;-56
2023/07/14 09:51:21;;;;;;;3.10;0.50;;;26.30;1.00;;;;;;5072494;28;20870;-55
2023/07/14 09:53:59;;;;;;;1.10;0.45;;;26.40;1.00;;;;;;5074105;28;20860;-55
2023/07/14 09:56:30;;;;;;;1.30;0.50;;;26.40;1.00;;;;;;5068431;28;20463;-55
2023/07/14 09:59:03;;;;;;;0.90;0.50;;;26.20;1.00;;;;;;5074551;28;20773;-57
2023/07/14 10:01:32;;;;;;;0.85;0.50;;;26.20;1.00;;;;;;5068831;28;20423;-57
2023/07/14 10:04:12;;;;;;;1.08;0.40;;;26.30;1.00;;;;;;5053907;28;20786;-56
2023/07/14 10:06:39;;;;;;;0.80;0.50;;;26.40;1.00;;;;;;5072212;28;20811;-55
2023/07/14 10:09:10;;;;;;;0.70;0.40;;;26.40;1.00;;;;;;5068721;28;20853;-55
2023/07/14 10:11:41;;;;;;;2.13;0.50;;;26.50;1.00;;;;;;5071656;28;20428;-52
2023/07/14 10:14:19;;;;;;;0.73;0.50;;;26.50;1.00;;;;;;5067747;28;20427;-53
2023/07/14 10:16:48;;;;;;;2.40;0.50;;;26.50;1.00;;;;;;5056080;28;20933;-56
2023/07/14 10:19:18;;;;;;;0.90;0.50;;;26.50;1.00;;;;;;5072519;28;20997;-56
2023/07/14 10:21:54;;;;;;;0.90;0.50;;;26.60;1.00;;;;;;5072608;28;20436;-55
2023/07/14 10:24:23;;;;;;;0.80;0.50;;;26.70;1.00;;;;;;5069539;28;20442;-57
2023/07/14 10:26:54;;;;;;;0.90;0.40;;;26.50;1.00;;;;;;5068115;28;20427;-55
2023/07/14 10:29:25;;;;;;;0.80;0.50;;;26.80;1.00;;;;;;5071610;28;20731;-55
2023/07/14 10:32:00;;;;;;;0.70;0.50;;;26.50;1.00;;;;;;5063144;28;20863;-54
2023/07/14 10:34:49;;;;;;;0.70;0.50;;;26.70;1.00;;;;;;5069464;28;20438;-55
2023/07/14 10:37:24;;;;;;;0.88;0.40;;;26.70;1.00;;;;;;5069478;28;20432;-56
2023/07/14 10:39:55;;;;;;;1.40;0.45;;;26.50;1.00;;;;;;5067078;28;20436;-55
2023/07/14 10:42:27;;;;;;;0.80;0.50;;;26.80;1.00;;;;;;5048980;28;20524;-55
2023/07/14 10:44:56;;;;;;;0.80;0.40;;;26.80;1.00;;;;;;5063177;28;20424;-55
2023/07/14 10:47:28;;;;;;;0.60;0.40;;;26.80;1.00;;;;;;5070781;28;20463;-52
2023/07/14 10:50:00;;;;;;;0.90;0.50;;;26.70;1.00;;;;;;5069915;28;20431;-55
2023/07/14 10:52:31;;;;;;;0.80;0.50;;;27.00;1.00;;;;;;5053581;28;20847;-52
2023/07/14 10:55:03;;;;;;;0.90;0.50;;;27.00;1.00;;;;;;5067623;28;20859;-53
2023/07/14 10:57:41;;;;;;;0.90;0.50;;;26.80;1.00;;;;;;5064995;28;20494;-53
2023/07/14 11:00:30;;;;;;;0.80;0.40;;;27.10;1.00;;;;;;5068516;28;20481;-54
2023/07/14 11:03:18;;;;;;;1.00;0.40;;;27.50;1.00;;;;;;5068286;28;20427;-55
2023/07/14 11:05:54;;;;;;;0.90;0.50;;;27.50;1.00;;;;;;5068897;28;20874;-55
2023/07/14 11:08:21;;;;;;;0.85;0.40;;;27.40;1.00;;;;;;5070559;28;20430;-55
2023/07/14 11:10:53;;;;;;;1.80;0.40;;;27.40;1.00;;;;;;5070411;28;20438;-56
2023/07/14 11:13:28;;;;;;;1.10;0.40;;;27.40;1.00;;;;;;5068824;28;20509;-57
2023/07/14 11:16:05;;;;;;;0.73;0.40;;;27.60;1.00;;;;;;5070139;28;20443;-53
2023/07/14 11:18:42;;;;;;;0.60;0.40;;;27.70;1.00;;;;;;5066867;28;20424;-57
2023/07/14 11:21:25;;;;;;;0.75;0.50;;;27.90;1.00;;;;;;5066301;28;20482;-57
2023/07/14 11:24:02;;;;;;;0.65;0.50;;;28.10;1.00;;;;;;5068409;28;20419;-55
2023/07/14 11:26:32;;;;;;;1.60;0.60;;;27.90;1.00;;;;;;5067770;28;20427;-55
2023/07/14 11:29:05;;;;;;;1.20;0.60;;;27.90;1.00;;;;;;5070267;28;20427;-56
2023/07/14 11:31:37;;;;;;;0.70;0.50;;;28.10;1.00;;;;;;5066596;28;20467;-57
2023/07/14 11:34:18;;;;;;;0.70;0.50;;;28.10;1.00;;;;;;5071624;28;20423;-57
2023/07/14 11:36:57;;;;;;;0.75;0.50;;;28.10;1.00;;;;;;5067842;28;20431;-57
2023/07/14 11:39:42;;;;;;;0.70;0.47;;;28.30;1.00;;;;;;5070732;28;20866;-57
2023/07/14 11:42:22;;;;;;;1.30;0.40;;;28.30;1.00;;;;;;5069481;28;20416;-57
2023/07/14 11:44:50;;;;;;;0.70;0.50;;;28.40;1.00;;;;;;5069096;28;20443;-57
2023/07/14 11:47:22;;;;;;;1.00;0.50;;;28.50;1.00;;;;;;5069428;28;20870;-57
2023/07/14 11:49:55;;;;;;;0.80;0.40;;;28.60;1.00;;;;;;5070129;28;20432;-59
2023/07/14 11:52:23;;;;;;;0.60;0.40;;;28.20;1.00;;;;;;5070036;28;20490;-58
2023/07/14 11:55:02;;;;;;;1.05;0.50;;;28.00;1.00;;;;;;5072339;28;20427;-59
2023/07/14 11:57:30;;;;;;;1.00;0.40;;;28.10;1.00;;;;;;5070336;28;20419;-58
2023/07/14 12:00:06;;;;;;;0.87;0.50;;;28.30;1.00;;;;;;5071095;28;20427;-56
2023/07/14 12:02:46;;;;;;;1.10;0.50;;;28.70;1.00;;;;;;5067724;28;20518;-58
2023/07/14 12:05:36;;;;;;;0.50;0.40;;;28.80;1.00;;;;;;5067605;28;20432;-58
2023/07/14 12:08:24;;;;;;;0.70;0.40;;;28.70;1.00;;;;;;5069497;28;20734;-58
2023/07/14 12:10:52;;;;;;;2.00;0.50;;;29.20;1.00;;;;;;5066065;28;20861;-58
2023/07/14 12:13:30;;;;;;;0.70;0.50;;;29.50;1.00;;;;;;5072583;28;20458;-58
2023/07/14 12:16:25;;;;;;;0.90;0.40;;;29.80;1.00;;;;;;5071957;28;20440;-58
2023/07/14 12:19:20;;;;;;;1.10;0.52;;;29.60;1.00;;;;;;5072956;28;20493;-59
2023/07/14 12:22:02;;;;;;;1.02;0.40;;;29.20;1.00;;;;;;5070010;28;20430;-58
2023/07/14 12:24:31;;;;;;;0.50;0.40;;;28.90;1.00;;;;;;5071933;28;20446;-60
2023/07/14 12:27:13;;;;;;;1.40;0.40;;;29.20;1.00;;;;;;5071272;28;20430;-59
2023/07/14 12:29:41;;;;;;;1.20;0.50;;;29.40;1.00;;;;;;5078801;28;20430;-60
2023/07/14 12:32:18;;;;;;;0.60;0.40;;;29.50;1.00;;;;;;5068504;28;20712;-59
2023/07/14 12:34:46;;;;;;;0.60;0.40;;;29.40;1.00;;;;;;5070663;28;20455;-59
2023/07/14 12:37:18;;;;;;;0.70;0.40;;;29.00;1.00;;;;;;5071471;28;20466;-60
2023/07/14 12:39:47;;;;;;;1.00;0.40;;;28.70;1.00;;;;;;5071492;28;20427;-59
2023/07/14 12:42:15;;;;;;;0.70;0.40;;;28.40;1.00;;;;;;5068107;28;20419;-59
2023/07/14 12:44:43;;;;;;;0.60;0.40;;;28.20;1.00;;;;;;5068000;28;20435;-60
2023/07/14 12:47:15;;;;;;;0.80;0.47;;;28.40;1.00;;;;;;5072471;28;20485;-58
2023/07/14 12:49:47;;;;;;;1.38;0.40;;;28.40;1.00;;;;;;5067649;28;20435;-58
2023/07/14 12:52:19;;;;;;;0.77;0.40;;;28.90;1.00;;;;;;5070490;28;20431;-58
2023/07/14 12:54:47;;;;;;;0.90;0.47;;;29.10;1.00;;;;;;5067722;28;20474;-58
2023/07/14 12:57:16;;;;;;;0.90;0.40;;;28.90;1.00;;;;;;5072946;28;20485;-59
2023/07/14 12:59:48;;;;;;;0.70;0.50;;;29.20;1.00;;;;;;5071137;28;20423;-58
2023/07/14 13:02:15;;;;;;;0.80;0.40;;;29.50;1.00;;;;;;5069101;28;20431;-58
2023/07/14 13:04:43;;;;;;;0.63;0.40;;;29.90;1.00;;;;;;5070494;28;20423;-58
2023/07/14 13:07:16;;;;;;;0.90;0.40;;;30.30;1.00;;;;;;5069970;28;20431;-58
2023/07/14 13:09:45;;;;;;;0.70;0.40;;;30.20;1.00;;;;;;5073181;28;20925;-58
2023/07/14 13:12:14;;;;;;;1.10;0.40;;;30.70;1.00;;;;;;5073777;28;20858;-58